sensor_id;sensor_type;location;lat;lon;timestamp;temperature;humidity
76751;SHT31;65216;51.090;-115.352;2023-02-28T00:01:30;21.65;22.66
76751;SHT31;65216;51.090;-115.352;2023-02-28T00:03:58;21.65;22.65
76751;SHT31;65216;51.090;-115.352;2023-02-28T00:06:26;21.63;22.80
76751;SHT31;65216;51.090;-115.352;2023-02-28T00:08:56;21.63;22.85
76751;SHT31;65216;51.090;-115.352;2023-02-28T00:11:25;21.63;23.05
76751;SHT31;65216;51.090;-115.352;2023-02-28T00:13:52;21.64;23.27
76751;SHT31;65216;51.090;-115.352;2023-02-28T00:16:20;21.66;23.46
76751;SHT31;65216;51.090;-115.352;2023-02-28T00:18:48;21.65;23.48
76751;SHT31;65216;51.090;-115.352;2023-02-28T00:21:17;21.65;23.50
76751;SHT31;65216;51.090;-115.352;2023-02-28T00:23:45;21.65;23.67
76751;SHT31;65216;51.090;-115.352;2023-02-28T00:26:16;21.63;23.79
76751;SHT31;65216;51.090;-115.352;2023-02-28T00:28:43;21.64;23.95
76751;SHT31;65216;51.090;-115.352;2023-02-28T00:31:11;21.62;24.06
76751;SHT31;65216;51.090;-115.352;2023-02-28T00:33:38;21.63;24.13
76751;SHT31;65216;51.090;-115.352;2023-02-28T00:36:07;21.62;24.18
76751;SHT31;65216;51.090;-115.352;2023-02-28T00:38:36;21.61;24.27
76751;SHT31;65216;51.090;-115.352;2023-02-28T00:41:05;21.62;24.41
76751;SHT31;65216;51.090;-115.352;2023-02-28T00:43:37;21.61;24.55
76751;SHT31;65216;51.090;-115.352;2023-02-28T00:46:06;21.61;24.61
76751;SHT31;65216;51.090;-115.352;2023-02-28T00:48:34;21.61;24.65
76751;SHT31;65216;51.090;-115.352;2023-02-28T00:51:02;21.60;24.73
76751;SHT31;65216;51.090;-115.352;2023-02-28T00:53:32;21.58;24.91
76751;SHT31;65216;51.090;-115.352;2023-02-28T00:56:02;21.58;24.98
76751;SHT31;65216;51.090;-115.352;2023-02-28T00:58:30;21.58;25.17
76751;SHT31;65216;51.090;-115.352;2023-02-28T01:00:57;21.56;25.23
76751;SHT31;65216;51.090;-115.352;2023-02-28T01:03:25;21.56;25.33
76751;SHT31;65216;51.090;-115.352;2023-02-28T01:05:52;21.56;25.49
76751;SHT31;65216;51.090;-115.352;2023-02-28T01:08:20;21.54;25.62
76751;SHT31;65216;51.090;-115.352;2023-02-28T01:10:47;21.54;25.66
76751;SHT31;65216;51.090;-115.352;2023-02-28T01:13:15;21.52;25.62
76751;SHT31;65216;51.090;-115.352;2023-02-28T01:15:45;21.50;25.71
76751;SHT31;65216;51.090;-115.352;2023-02-28T01:18:21;21.50;25.74
76751;SHT31;65216;51.090;-115.352;2023-02-28T01:20:51;21.49;25.73
76751;SHT31;65216;51.090;-115.352;2023-02-28T01:23:21;21.47;25.70
76751;SHT31;65216;51.090;-115.352;2023-02-28T01:25:49;21.47;25.80
76751;SHT31;65216;51.090;-115.352;2023-02-28T01:28:20;21.45;25.89
76751;SHT31;65216;51.090;-115.352;2023-02-28T01:30:51;21.44;26.01
76751;SHT31;65216;51.090;-115.352;2023-02-28T01:33:21;21.42;26.03
76751;SHT31;65216;51.090;-115.352;2023-02-28T01:35:48;21.42;26.09
76751;SHT31;65216;51.090;-115.352;2023-02-28T01:38:15;21.42;26.23
76751;SHT31;65216;51.090;-115.352;2023-02-28T01:40:43;21.40;26.18
76751;SHT31;65216;51.090;-115.352;2023-02-28T01:43:21;21.39;26.30
76751;SHT31;65216;51.090;-115.352;2023-02-28T01:45:53;21.39;26.37
76751;SHT31;65216;51.090;-115.352;2023-02-28T01:48:24;21.36;26.42
76751;SHT31;65216;51.090;-115.352;2023-02-28T01:51:01;21.36;26.49
76751;SHT31;65216;51.090;-115.352;2023-02-28T01:53:37;21.35;26.50
76751;SHT31;65216;51.090;-115.352;2023-02-28T01:56:14;21.33;26.49
76751;SHT31;65216;51.090;-115.352;2023-02-28T01:58:51;21.32;26.53
76751;SHT31;65216;51.090;-115.352;2023-02-28T02:01:20;21.32;26.53
76751;SHT31;65216;51.090;-115.352;2023-02-28T02:03:55;21.31;26.58
76751;SHT31;65216;51.090;-115.352;2023-02-28T02:06:38;21.29;26.58
76751;SHT31;65216;51.090;-115.352;2023-02-28T02:09:14;21.28;26.45
76751;SHT31;65216;51.090;-115.352;2023-02-28T02:11:42;21.27;26.48
76751;SHT31;65216;51.090;-115.352;2023-02-28T02:14:35;21.27;26.49
76751;SHT31;65216;51.090;-115.352;2023-02-28T02:17:32;21.25;26.43
76751;SHT31;65216;51.090;-115.352;2023-02-28T02:22:58;21.25;26.26
76751;SHT31;65216;51.090;-115.352;2023-02-28T02:31:46;21.22;26.04
76751;SHT31;65216;51.090;-115.352;2023-02-28T02:41:14;21.17;25.63
76751;SHT31;65216;51.090;-115.352;2023-02-28T02:47:17;21.14;25.54
76751;SHT31;65216;51.090;-115.352;2023-02-28T02:49:51;21.14;25.45
76751;SHT31;65216;51.090;-115.352;2023-02-28T02:52:32;21.13;25.35
76751;SHT31;65216;51.090;-115.352;2023-02-28T02:55:05;21.13;25.29
76751;SHT31;65216;51.090;-115.352;2023-02-28T02:58:01;21.13;25.16
76751;SHT31;65216;51.090;-115.352;2023-02-28T03:00:38;21.13;24.99
76751;SHT31;65216;51.090;-115.352;2023-02-28T03:03:15;21.13;24.90
76751;SHT31;65216;51.090;-115.352;2023-02-28T03:05:54;21.13;24.88
76751;SHT31;65216;51.090;-115.352;2023-02-28T03:08:30;21.11;24.80
76751;SHT31;65216;51.090;-115.352;2023-02-28T03:11:04;21.10;24.74
76751;SHT31;65216;51.090;-115.352;2023-02-28T03:16:32;21.10;24.67
76751;SHT31;65216;51.090;-115.352;2023-02-28T03:25:38;21.06;24.51
76751;SHT31;65216;51.090;-115.352;2023-02-28T03:28:24;21.04;24.51
76751;SHT31;65216;51.090;-115.352;2023-02-28T03:34:17;21.00;24.39
76751;SHT31;65216;51.090;-115.352;2023-02-28T03:36:57;20.99;24.32
76751;SHT31;65216;51.090;-115.352;2023-02-28T03:39:43;20.98;24.26
76751;SHT31;65216;51.090;-115.352;2023-02-28T03:42:29;20.96;24.20
76751;SHT31;65216;51.090;-115.352;2023-02-28T03:45:15;20.94;24.15
76751;SHT31;65216;51.090;-115.352;2023-02-28T03:47:51;20.93;24.00
76751;SHT31;65216;51.090;-115.352;2023-02-28T03:50:27;20.90;23.99
76751;SHT31;65216;51.090;-115.352;2023-02-28T03:53:13;20.89;23.89
76751;SHT31;65216;51.090;-115.352;2023-02-28T04:01:56;20.87;23.74
76751;SHT31;65216;51.090;-115.352;2023-02-28T04:04:24;20.87;23.72
76751;SHT31;65216;51.090;-115.352;2023-02-28T04:06:52;20.86;23.69
76751;SHT31;65216;51.090;-115.352;2023-02-28T04:09:31;20.86;23.67
76751;SHT31;65216;51.090;-115.352;2023-02-28T04:12:01;20.85;23.63
76751;SHT31;65216;51.090;-115.352;2023-02-28T04:14:29;20.84;23.53
76751;SHT31;65216;51.090;-115.352;2023-02-28T04:16:57;20.83;23.45
76751;SHT31;65216;51.090;-115.352;2023-02-28T04:19:27;20.82;23.39
76751;SHT31;65216;51.090;-115.352;2023-02-28T04:21:54;20.82;23.35
76751;SHT31;65216;51.090;-115.352;2023-02-28T04:24:23;20.82;23.20
76751;SHT31;65216;51.090;-115.352;2023-02-28T04:26:56;20.80;23.13
76751;SHT31;65216;51.090;-115.352;2023-02-28T04:29:26;20.80;23.06
76751;SHT31;65216;51.090;-115.352;2023-02-28T04:32:00;20.79;22.91
76751;SHT31;65216;51.090;-115.352;2023-02-28T04:34:31;20.77;22.74
76751;SHT31;65216;51.090;-115.352;2023-02-28T04:36:58;20.75;22.72
76751;SHT31;65216;51.090;-115.352;2023-02-28T04:39:26;20.76;22.60
76751;SHT31;65216;51.090;-115.352;2023-02-28T04:41:53;20.75;22.52
76751;SHT31;65216;51.090;-115.352;2023-02-28T04:44:25;20.73;22.35
76751;SHT31;65216;51.090;-115.352;2023-02-28T04:46:53;20.73;22.28
76751;SHT31;65216;51.090;-115.352;2023-02-28T04:49:20;20.70;22.18
76751;SHT31;65216;51.090;-115.352;2023-02-28T04:54:54;20.68;21.87
76751;SHT31;65216;51.090;-115.352;2023-02-28T04:57:22;20.67;21.73
76751;SHT31;65216;51.090;-115.352;2023-02-28T04:59:53;20.65;21.65
76751;SHT31;65216;51.090;-115.352;2023-02-28T05:02:20;20.63;21.50
76751;SHT31;65216;51.090;-115.352;2023-02-28T05:04:53;20.63;21.40
76751;SHT31;65216;51.090;-115.352;2023-02-28T05:07:23;20.62;21.27
76751;SHT31;65216;51.090;-115.352;2023-02-28T05:09:51;20.61;21.14
76751;SHT31;65216;51.090;-115.352;2023-02-28T05:12:21;20.60;21.04
76751;SHT31;65216;51.090;-115.352;2023-02-28T05:14:48;20.59;20.95
76751;SHT31;65216;51.090;-115.352;2023-02-28T05:17:18;20.58;20.82
76751;SHT31;65216;51.090;-115.352;2023-02-28T05:19:46;20.58;20.72
76751;SHT31;65216;51.090;-115.352;2023-02-28T05:22:15;20.56;20.62
76751;SHT31;65216;51.090;-115.352;2023-02-28T05:24:43;20.56;20.54
76751;SHT31;65216;51.090;-115.352;2023-02-28T05:27:13;20.56;20.43
76751;SHT31;65216;51.090;-115.352;2023-02-28T05:29:40;20.56;20.33
76751;SHT31;65216;51.090;-115.352;2023-02-28T05:32:09;20.55;20.19
76751;SHT31;65216;51.090;-115.352;2023-02-28T05:34:41;20.53;20.16
76751;SHT31;65216;51.090;-115.352;2023-02-28T05:37:14;20.53;20.04
76751;SHT31;65216;51.090;-115.352;2023-02-28T05:39:45;20.52;19.99
76751;SHT31;65216;51.090;-115.352;2023-02-28T05:42:15;20.52;19.89
76751;SHT31;65216;51.090;-115.352;2023-02-28T05:44:43;20.50;19.80
76751;SHT31;65216;51.090;-115.352;2023-02-28T05:47:10;20.50;19.72
76751;SHT31;65216;51.090;-115.352;2023-02-28T05:49:41;20.48;19.67
76751;SHT31;65216;51.090;-115.352;2023-02-28T05:52:11;20.47;19.59
76751;SHT31;65216;51.090;-115.352;2023-02-28T05:54:38;20.45;19.59
76751;SHT31;65216;51.090;-115.352;2023-02-28T05:57:09;20.46;19.52
76751;SHT31;65216;51.090;-115.352;2023-02-28T05:59:38;20.45;19.51
76751;SHT31;65216;51.090;-115.352;2023-02-28T06:02:06;20.44;19.54
76751;SHT31;65216;51.090;-115.352;2023-02-28T06:04:44;20.43;19.45
76751;SHT31;65216;51.090;-115.352;2023-02-28T06:07:14;20.43;19.41
76751;SHT31;65216;51.090;-115.352;2023-02-28T06:09:45;20.42;19.40
76751;SHT31;65216;51.090;-115.352;2023-02-28T06:12:13;20.42;19.47
76751;SHT31;65216;51.090;-115.352;2023-02-28T06:14:41;20.41;19.54
76751;SHT31;65216;51.090;-115.352;2023-02-28T06:17:08;20.40;19.52
76751;SHT31;65216;51.090;-115.352;2023-02-28T06:19:38;20.38;19.51
76751;SHT31;65216;51.090;-115.352;2023-02-28T06:22:06;20.40;19.57
76751;SHT31;65216;51.090;-115.352;2023-02-28T06:24:36;20.38;19.82
76751;SHT31;65216;51.090;-115.352;2023-02-28T06:27:04;20.38;19.86
76751;SHT31;65216;51.090;-115.352;2023-02-28T06:29:32;20.36;19.89
76751;SHT31;65216;51.090;-115.352;2023-02-28T06:32:01;20.35;20.01
76751;SHT31;65216;51.090;-115.352;2023-02-28T06:34:28;20.33;20.20
76751;SHT31;65216;51.090;-115.352;2023-02-28T06:36:56;20.32;20.28
76751;SHT31;65216;51.090;-115.352;2023-02-28T06:39:28;20.31;20.24
76751;SHT31;65216;51.090;-115.352;2023-02-28T06:41:56;20.30;20.43
76751;SHT31;65216;51.090;-115.352;2023-02-28T06:44:23;20.28;20.28
76751;SHT31;65216;51.090;-115.352;2023-02-28T06:46:50;20.28;20.19
76751;SHT31;65216;51.090;-115.352;2023-02-28T06:49:18;20.29;19.97
76751;SHT31;65216;51.090;-115.352;2023-02-28T06:51:45;20.29;19.88
76751;SHT31;65216;51.090;-115.352;2023-02-28T06:54:13;20.28;19.87
76751;SHT31;65216;51.090;-115.352;2023-02-28T06:56:40;20.27;19.76
76751;SHT31;65216;51.090;-115.352;2023-02-28T06:59:19;20.27;19.68
76751;SHT31;65216;51.090;-115.352;2023-02-28T07:01:49;20.26;19.56
76751;SHT31;65216;51.090;-115.352;2023-02-28T07:04:17;20.25;19.56
76751;SHT31;65216;51.090;-115.352;2023-02-28T07:06:47;20.24;19.56
76751;SHT31;65216;51.090;-115.352;2023-02-28T07:09:28;20.24;19.53
76751;SHT31;65216;51.090;-115.352;2023-02-28T07:14:27;20.22;19.39
76751;SHT31;65216;51.090;-115.352;2023-02-28T07:16:56;20.21;19.38
76751;SHT31;65216;51.090;-115.352;2023-02-28T07:19:24;20.22;19.41
76751;SHT31;65216;51.090;-115.352;2023-02-28T07:22:00;20.22;19.35
76751;SHT31;65216;51.090;-115.352;2023-02-28T07:24:30;20.21;19.41
76751;SHT31;65216;51.090;-115.352;2023-02-28T07:27:00;20.21;19.32
76751;SHT31;65216;51.090;-115.352;2023-02-28T07:29:29;20.20;19.28
76751;SHT31;65216;51.090;-115.352;2023-02-28T07:32:03;20.19;19.31
76751;SHT31;65216;51.090;-115.352;2023-02-28T07:34:38;20.18;19.36
76751;SHT31;65216;51.090;-115.352;2023-02-28T07:37:05;20.17;19.30
76751;SHT31;65216;51.090;-115.352;2023-02-28T07:39:35;20.16;19.41
76751;SHT31;65216;51.090;-115.352;2023-02-28T07:42:07;20.14;19.44
76751;SHT31;65216;51.090;-115.352;2023-02-28T07:44:39;20.12;19.41
76751;SHT31;65216;51.090;-115.352;2023-02-28T07:47:08;20.11;19.36
76751;SHT31;65216;51.090;-115.352;2023-02-28T07:52:35;20.12;19.20
76751;SHT31;65216;51.090;-115.352;2023-02-28T07:55:06;20.11;19.24
76751;SHT31;65216;51.090;-115.352;2023-02-28T07:57:35;20.11;19.21
76751;SHT31;65216;51.090;-115.352;2023-02-28T08:00:04;20.10;19.19
76751;SHT31;65216;51.090;-115.352;2023-02-28T08:02:38;20.08;19.14
76751;SHT31;65216;51.090;-115.352;2023-02-28T08:05:06;20.09;19.10
76751;SHT31;65216;51.090;-115.352;2023-02-28T08:07:37;20.09;19.04
76751;SHT31;65216;51.090;-115.352;2023-02-28T08:10:07;20.10;18.99
76751;SHT31;65216;51.090;-115.352;2023-02-28T08:12:35;20.10;18.90
76751;SHT31;65216;51.090;-115.352;2023-02-28T08:15:05;20.08;18.81
76751;SHT31;65216;51.090;-115.352;2023-02-28T08:17:36;20.07;18.75
76751;SHT31;65216;51.090;-115.352;2023-02-28T08:20:04;20.07;18.71
76751;SHT31;65216;51.090;-115.352;2023-02-28T08:22:34;20.07;18.67
76751;SHT31;65216;51.090;-115.352;2023-02-28T08:25:02;20.06;18.58
76751;SHT31;65216;51.090;-115.352;2023-02-28T08:27:32;20.05;18.50
76751;SHT31;65216;51.090;-115.352;2023-02-28T08:30:03;20.05;18.51
76751;SHT31;65216;51.090;-115.352;2023-02-28T08:32:32;20.04;18.39
76751;SHT31;65216;51.090;-115.352;2023-02-28T08:35:03;20.02;18.40
76751;SHT31;65216;51.090;-115.352;2023-02-28T08:37:34;20.02;18.31
76751;SHT31;65216;51.090;-115.352;2023-02-28T08:40:02;20.02;18.28
76751;SHT31;65216;51.090;-115.352;2023-02-28T08:42:30;20.02;18.22
76751;SHT31;65216;51.090;-115.352;2023-02-28T08:44:59;20.01;18.19
76751;SHT31;65216;51.090;-115.352;2023-02-28T08:47:26;20.03;18.12
76751;SHT31;65216;51.090;-115.352;2023-02-28T08:49:54;20.01;18.10
76751;SHT31;65216;51.090;-115.352;2023-02-28T08:52:21;20.00;18.06
76751;SHT31;65216;51.090;-115.352;2023-02-28T08:54:48;20.00;18.02
76751;SHT31;65216;51.090;-115.352;2023-02-28T08:57:16;19.98;17.99
76751;SHT31;65216;51.090;-115.352;2023-02-28T08:59:46;19.97;17.91
76751;SHT31;65216;51.090;-115.352;2023-02-28T09:02:13;19.99;17.89
76751;SHT31;65216;51.090;-115.352;2023-02-28T09:04:41;19.97;17.88
76751;SHT31;65216;51.090;-115.352;2023-02-28T09:07:11;19.97;17.83
76751;SHT31;65216;51.090;-115.352;2023-02-28T09:09:39;19.97;17.78
76751;SHT31;65216;51.090;-115.352;2023-02-28T09:12:21;19.95;17.74
76751;SHT31;65216;51.090;-115.352;2023-02-28T09:14:50;19.95;17.71
76751;SHT31;65216;51.090;-115.352;2023-02-28T09:17:21;19.94;17.70
76751;SHT31;65216;51.090;-115.352;2023-02-28T09:19:48;19.94;17.67
76751;SHT31;65216;51.090;-115.352;2023-02-28T09:22:16;19.93;17.68
76751;SHT31;65216;51.090;-115.352;2023-02-28T09:24:46;19.93;17.62
76751;SHT31;65216;51.090;-115.352;2023-02-28T09:27:14;19.93;17.60
76751;SHT31;65216;51.090;-115.352;2023-02-28T09:29:41;19.92;17.54
76751;SHT31;65216;51.090;-115.352;2023-02-28T09:32:09;19.92;17.51
76751;SHT31;65216;51.090;-115.352;2023-02-28T09:34:36;19.92;17.50
76751;SHT31;65216;51.090;-115.352;2023-02-28T09:37:04;19.91;17.48
76751;SHT31;65216;51.090;-115.352;2023-02-28T09:39:32;19.90;17.45
76751;SHT31;65216;51.090;-115.352;2023-02-28T09:41:59;19.89;17.41
76751;SHT31;65216;51.090;-115.352;2023-02-28T09:47:38;19.90;17.39
76751;SHT31;65216;51.090;-115.352;2023-02-28T09:53:29;19.89;17.32
76751;SHT31;65216;51.090;-115.352;2023-02-28T09:56:07;19.89;17.30
76751;SHT31;65216;51.090;-115.352;2023-02-28T10:10:33;19.83;17.21
76751;SHT31;65216;51.090;-115.352;2023-02-28T10:19:24;19.82;17.21
76751;SHT31;65216;51.090;-115.352;2023-02-28T10:22:25;19.82;17.20
76751;SHT31;65216;51.090;-115.352;2023-02-28T10:25:17;19.81;17.20
76751;SHT31;65216;51.090;-115.352;2023-02-28T10:27:53;19.81;17.20
76751;SHT31;65216;51.090;-115.352;2023-02-28T10:30:48;19.80;17.20
76751;SHT31;65216;51.090;-115.352;2023-02-28T10:33:25;19.81;17.21
76751;SHT31;65216;51.090;-115.352;2023-02-28T10:35:56;19.81;17.20
76751;SHT31;65216;51.090;-115.352;2023-02-28T10:38:28;19.82;17.19
76751;SHT31;65216;51.090;-115.352;2023-02-28T10:41:05;19.81;17.18
76751;SHT31;65216;51.090;-115.352;2023-02-28T10:43:42;19.80;17.17
76751;SHT31;65216;51.090;-115.352;2023-02-28T10:46:33;19.79;17.15
76751;SHT31;65216;51.090;-115.352;2023-02-28T10:49:02;19.80;17.19
76751;SHT31;65216;51.090;-115.352;2023-02-28T10:51:39;19.79;17.15
76751;SHT31;65216;51.090;-115.352;2023-02-28T10:54:18;19.80;17.18
76751;SHT31;65216;51.090;-115.352;2023-02-28T10:57:20;19.79;17.10
76751;SHT31;65216;51.090;-115.352;2023-02-28T10:59:51;19.78;17.10
76751;SHT31;65216;51.090;-115.352;2023-02-28T11:02:35;19.79;17.08
76751;SHT31;65216;51.090;-115.352;2023-02-28T11:05:26;19.79;17.08
76751;SHT31;65216;51.090;-115.352;2023-02-28T11:08:06;19.79;17.03
76751;SHT31;65216;51.090;-115.352;2023-02-28T11:10:46;19.78;17.03
76751;SHT31;65216;51.090;-115.352;2023-02-28T11:13:35;19.80;17.01
76751;SHT31;65216;51.090;-115.352;2023-02-28T11:16:04;19.80;16.98
76751;SHT31;65216;51.090;-115.352;2023-02-28T11:18:50;19.80;16.99
76751;SHT31;65216;51.090;-115.352;2023-02-28T11:21:27;19.79;16.93
76751;SHT31;65216;51.090;-115.352;2023-02-28T11:27:02;19.79;16.95
76751;SHT31;65216;51.090;-115.352;2023-02-28T11:29:42;19.80;16.92
76751;SHT31;65216;51.090;-115.352;2023-02-28T11:32:19;19.78;16.88
76751;SHT31;65216;51.090;-115.352;2023-02-28T11:37:43;19.77;16.82
76751;SHT31;65216;51.090;-115.352;2023-02-28T11:40:15;19.75;16.88
76751;SHT31;65216;51.090;-115.352;2023-02-28T11:49:10;19.67;16.86
76751;SHT31;65216;51.090;-115.352;2023-02-28T11:55:26;19.62;16.87
76751;SHT31;65216;51.090;-115.352;2023-02-28T12:18:32;19.54;16.85
76751;SHT31;65216;51.090;-115.352;2023-02-28T12:24:07;19.54;16.87
76751;SHT31;65216;51.090;-115.352;2023-02-28T12:27:00;19.54;16.82
76751;SHT31;65216;51.090;-115.352;2023-02-28T12:29:36;19.53;16.83
76751;SHT31;65216;51.090;-115.352;2023-02-28T12:35:06;19.51;16.83
76751;SHT31;65216;51.090;-115.352;2023-02-28T12:37:57;19.51;16.82
76751;SHT31;65216;51.090;-115.352;2023-02-28T12:41:10;19.48;16.83
76751;SHT31;65216;51.090;-115.352;2023-02-28T12:44:30;19.48;16.86
76751;SHT31;65216;51.090;-115.352;2023-02-28T12:47:16;19.47;16.84
76751;SHT31;65216;51.090;-115.352;2023-02-28T12:50:08;19.46;16.88
76751;SHT31;65216;51.090;-115.352;2023-02-28T12:52:40;19.46;16.85
76751;SHT31;65216;51.090;-115.352;2023-02-28T13:09:54;19.44;16.91
76751;SHT31;65216;51.090;-115.352;2023-02-28T13:12:25;19.42;16.91
76751;SHT31;65216;51.090;-115.352;2023-02-28T13:17:38;19.41;16.96
76751;SHT31;65216;51.090;-115.352;2023-02-28T13:20:19;19.40;17.00
76751;SHT31;65216;51.090;-115.352;2023-02-28T13:22:51;19.41;16.99
76751;SHT31;65216;51.090;-115.352;2023-02-28T13:28:02;19.39;17.02
76751;SHT31;65216;51.090;-115.352;2023-02-28T13:33:28;19.38;17.06
76751;SHT31;65216;51.090;-115.352;2023-02-28T13:36:09;19.37;17.10
76751;SHT31;65216;51.090;-115.352;2023-02-28T13:44:06;19.38;17.18
76751;SHT31;65216;51.090;-115.352;2023-02-28T13:54:58;19.40;17.31
76751;SHT31;65216;51.090;-115.352;2023-02-28T14:07:28;19.44;17.45
76751;SHT31;65216;51.090;-115.352;2023-02-28T14:10:32;19.45;17.48
76751;SHT31;65216;51.090;-115.352;2023-02-28T14:16:05;19.49;17.50
76751;SHT31;65216;51.090;-115.352;2023-02-28T14:18:38;19.51;17.52
76751;SHT31;65216;51.090;-115.352;2023-02-28T14:21:16;19.51;17.53
76751;SHT31;65216;51.090;-115.352;2023-02-28T14:27:11;19.54;17.59
76751;SHT31;65216;51.090;-115.352;2023-02-28T14:36:37;19.57;17.67
76751;SHT31;65216;51.090;-115.352;2023-02-28T14:41:50;19.58;17.70
76751;SHT31;65216;51.090;-115.352;2023-02-28T14:44:22;19.59;17.72
76751;SHT31;65216;51.090;-115.352;2023-02-28T14:46:56;19.59;17.74
76751;SHT31;65216;51.090;-115.352;2023-02-28T14:49:42;19.59;17.76
76751;SHT31;65216;51.090;-115.352;2023-02-28T14:52:14;19.60;17.74
76751;SHT31;65216;51.090;-115.352;2023-02-28T14:54:54;19.60;17.75
76751;SHT31;65216;51.090;-115.352;2023-02-28T14:57:43;19.60;17.77
76751;SHT31;65216;51.090;-115.352;2023-02-28T15:02:56;19.60;17.82
76751;SHT31;65216;51.090;-115.352;2023-02-28T15:05:32;19.60;17.85
76751;SHT31;65216;51.090;-115.352;2023-02-28T15:08:02;19.62;17.82
76751;SHT31;65216;51.090;-115.352;2023-02-28T15:10:45;19.61;17.84
76751;SHT31;65216;51.090;-115.352;2023-02-28T15:13:39;19.61;17.86
76751;SHT31;65216;51.090;-115.352;2023-02-28T15:16:15;19.62;17.89
76751;SHT31;65216;51.090;-115.352;2023-02-28T15:18:47;19.61;17.90
76751;SHT31;65216;51.090;-115.352;2023-02-28T15:21:29;19.62;17.91
76751;SHT31;65216;51.090;-115.352;2023-02-28T15:24:14;19.63;17.96
76751;SHT31;65216;51.090;-115.352;2023-02-28T15:26:51;19.65;17.97
76751;SHT31;65216;51.090;-115.352;2023-02-28T15:29:26;19.65;18.05
76751;SHT31;65216;51.090;-115.352;2023-02-28T15:32:06;19.66;18.10
76751;SHT31;65216;51.090;-115.352;2023-02-28T15:34:48;19.66;18.09
76751;SHT31;65216;51.090;-115.352;2023-02-28T15:40:17;19.67;18.20
76751;SHT31;65216;51.090;-115.352;2023-02-28T15:48:22;19.68;18.28
76751;SHT31;65216;51.090;-115.352;2023-02-28T15:51:05;19.68;18.28
76751;SHT31;65216;51.090;-115.352;2023-02-28T15:56:51;19.70;18.34
76751;SHT31;65216;51.090;-115.352;2023-02-28T15:59:26;19.71;18.41
76751;SHT31;65216;51.090;-115.352;2023-02-28T16:07:35;19.74;18.57
76751;SHT31;65216;51.090;-115.352;2023-02-28T16:10:09;19.74;18.63
76751;SHT31;65216;51.090;-115.352;2023-02-28T16:12:41;19.75;18.60
76751;SHT31;65216;51.090;-115.352;2023-02-28T16:15:19;19.76;18.66
76751;SHT31;65216;51.090;-115.352;2023-02-28T16:17:48;19.76;18.69
76751;SHT31;65216;51.090;-115.352;2023-02-28T16:20:19;19.77;18.70
76751;SHT31;65216;51.090;-115.352;2023-02-28T16:22:59;19.79;18.80
76751;SHT31;65216;51.090;-115.352;2023-02-28T16:25:36;19.78;18.81
76751;SHT31;65216;51.090;-115.352;2023-02-28T16:28:12;19.79;18.88
76751;SHT31;65216;51.090;-115.352;2023-02-28T16:30:56;19.79;18.95
76751;SHT31;65216;51.090;-115.352;2023-02-28T16:33:25;19.80;18.99
76751;SHT31;65216;51.090;-115.352;2023-02-28T16:35:52;19.80;19.07
76751;SHT31;65216;51.090;-115.352;2023-02-28T16:38:20;19.81;19.19
76751;SHT31;65216;51.090;-115.352;2023-02-28T16:40:49;19.83;19.14
76751;SHT31;65216;51.090;-115.352;2023-02-28T16:43:22;19.83;19.16
76751;SHT31;65216;51.090;-115.352;2023-02-28T16:45:57;19.85;19.20
76751;SHT31;65216;51.090;-115.352;2023-02-28T16:48:26;19.85;19.34
76751;SHT31;65216;51.090;-115.352;2023-02-28T16:53:25;19.86;19.65
76751;SHT31;65216;51.090;-115.352;2023-02-28T16:55:52;19.86;19.84
76751;SHT31;65216;51.090;-115.352;2023-02-28T16:58:21;19.86;19.95
76751;SHT31;65216;51.090;-115.352;2023-02-28T17:00:51;19.87;20.02
76751;SHT31;65216;51.090;-115.352;2023-02-28T17:03:22;19.87;20.10
76751;SHT31;65216;51.090;-115.352;2023-02-28T17:05:51;19.88;20.19
76751;SHT31;65216;51.090;-115.352;2023-02-28T17:08:22;19.88;20.22
76751;SHT31;65216;51.090;-115.352;2023-02-28T17:10:49;19.89;20.34
76751;SHT31;65216;51.090;-115.352;2023-02-28T17:13:20;19.90;20.48
76751;SHT31;65216;51.090;-115.352;2023-02-28T17:15:47;19.91;20.56
76751;SHT31;65216;51.090;-115.352;2023-02-28T17:18:16;19.91;20.56
76751;SHT31;65216;51.090;-115.352;2023-02-28T17:20:46;19.92;20.62
76751;SHT31;65216;51.090;-115.352;2023-02-28T17:23:14;19.93;20.69
76751;SHT31;65216;51.090;-115.352;2023-02-28T17:25:42;19.95;20.77
76751;SHT31;65216;51.090;-115.352;2023-02-28T17:28:19;19.97;20.84
76751;SHT31;65216;51.090;-115.352;2023-02-28T17:30:47;19.99;20.90
76751;SHT31;65216;51.090;-115.352;2023-02-28T17:33:18;20.00;20.92
76751;SHT31;65216;51.090;-115.352;2023-02-28T17:35:45;20.03;20.98
76751;SHT31;65216;51.090;-115.352;2023-02-28T17:38:16;20.05;20.99
76751;SHT31;65216;51.090;-115.352;2023-02-28T17:40:48;20.06;20.93
76751;SHT31;65216;51.090;-115.352;2023-02-28T17:43:15;20.08;20.93
76751;SHT31;65216;51.090;-115.352;2023-02-28T17:45:43;20.09;20.91
76751;SHT31;65216;51.090;-115.352;2023-02-28T17:48:13;20.11;20.88
76751;SHT31;65216;51.090;-115.352;2023-02-28T17:50:40;20.12;20.80
76751;SHT31;65216;51.090;-115.352;2023-02-28T17:53:08;20.14;20.82
76751;SHT31;65216;51.090;-115.352;2023-02-28T17:55:38;20.16;20.86
76751;SHT31;65216;51.090;-115.352;2023-02-28T17:58:05;20.19;20.84
76751;SHT31;65216;51.090;-115.352;2023-02-28T18:00:37;20.21;20.84
76751;SHT31;65216;51.090;-115.352;2023-02-28T18:03:05;20.24;20.87
76751;SHT31;65216;51.090;-115.352;2023-02-28T18:05:38;20.25;20.82
76751;SHT31;65216;51.090;-115.352;2023-02-28T18:08:08;20.28;20.72
76751;SHT31;65216;51.090;-115.352;2023-02-28T18:10:42;20.31;20.71
76751;SHT31;65216;51.090;-115.352;2023-02-28T18:13:10;20.34;20.64
76751;SHT31;65216;51.090;-115.352;2023-02-28T18:15:40;20.36;20.61
76751;SHT31;65216;51.090;-115.352;2023-02-28T18:18:07;20.40;20.60
76751;SHT31;65216;51.090;-115.352;2023-02-28T18:20:37;20.42;20.51
76751;SHT31;65216;51.090;-115.352;2023-02-28T18:23:07;20.47;20.49
76751;SHT31;65216;51.090;-115.352;2023-02-28T18:25:34;20.50;20.43
76751;SHT31;65216;51.090;-115.352;2023-02-28T18:28:07;20.52;20.40
76751;SHT31;65216;51.090;-115.352;2023-02-28T18:30:37;20.55;20.36
76751;SHT31;65216;51.090;-115.352;2023-02-28T18:33:05;20.58;20.31
76751;SHT31;65216;51.090;-115.352;2023-02-28T18:35:32;20.62;20.31
76751;SHT31;65216;51.090;-115.352;2023-02-28T18:38:07;20.64;20.31
76751;SHT31;65216;51.090;-115.352;2023-02-28T18:40:40;20.67;20.31